Time;durP1;ratioP1;P1;durP2;ratioP2;P2;SDS_P1;SDS_P2;PMS_P1;PMS_P2;Temp;Humidity;BMP_temperature;BMP_pressure;BME280_temperature;BME280_humidity;BME280_pressure;Samples;Min_cycle;Max_cycle;Signal;HPM_P1;HPM_P2
2022/10/12 00:00:04;;;;;;;;;;;3.80;99.90;;;;;;5074272;28;19908;-67
2022/10/12 00:02:30;;;;;;;;;;;3.80;99.90;;;;;;5073980;28;19955;-66
2022/10/12 00:04:55;;;;;;;;;;;3.80;99.90;;;;;;5089996;28;19916;-66
2022/10/12 00:07:21;;;;;;;;;;;3.80;99.90;;;;;;5073925;28;19908;-65
2022/10/12 00:09:46;;;;;;;;;;;3.70;99.90;;;;;;5074128;28;20432;-67
2022/10/12 00:12:12;;;;;;;;;;;3.70;99.90;;;;;;5073870;28;19934;-67
2022/10/12 00:14:37;;;;;;;;;;;3.60;99.90;;;;;;5073897;28;19909;-66
2022/10/12 00:17:03;;;;;;;;;;;3.60;99.90;;;;;;5074089;28;19919;-66
2022/10/12 00:19:28;;;;;;;;;;;3.60;99.90;;;;;;5073801;28;20363;-66
2022/10/12 00:21:54;;;;;;;;;;;3.50;99.90;;;;;;5072452;28;19955;-66
2022/10/12 00:24:19;;;;;;;;;;;3.50;99.90;;;;;;5073781;28;19908;-67
2022/10/12 00:26:45;;;;;;;;;;;3.50;99.90;;;;;;5073718;28;19932;-66
2022/10/12 00:29:10;;;;;;;;;;;3.50;99.90;;;;;;5073702;28;19909;-67
2022/10/12 00:31:36;;;;;;;;;;;3.50;99.90;;;;;;5073787;28;20398;-66
2022/10/12 00:34:02;;;;;;;;;;;3.60;99.90;;;;;;5073893;28;19909;-66
2022/10/12 00:36:30;;;;;;;;;;;3.50;99.90;;;;;;5089263;28;19999;-66
2022/10/12 00:38:56;;;;;;;;;;;3.50;99.90;;;;;;5074094;28;19909;-66
2022/10/12 00:41:23;;;;;;;;;;;3.50;99.90;;;;;;5074187;28;20389;-66
2022/10/12 00:43:49;;;;;;;;;;;3.50;99.90;;;;;;5073993;28;19971;-67
2022/10/12 00:46:17;;;;;;;;;;;3.50;99.90;;;;;;5073908;28;19908;-67
2022/10/12 00:48:44;;;;;;;;;;;3.50;99.90;;;;;;5089384;28;20382;-66
2022/10/12 00:51:10;;;;;;;;;;;3.50;99.90;;;;;;5073648;28;19909;-66
2022/10/12 00:53:39;;;;;;;;;;;3.50;99.90;;;;;;5073862;28;19971;-66
2022/10/12 00:56:09;;;;;;;;;;;3.40;99.90;;;;;;5089371;28;19912;-66
2022/10/12 00:58:34;;;;;;;;;;;3.40;99.90;;;;;;5073299;28;19912;-66
2022/10/12 01:01:01;;;;;;;;;;;3.40;99.90;;;;;;5073654;28;19996;-66
2022/10/12 01:03:27;;;;;;;;;;;3.40;99.90;;;;;;5072350;28;19962;-66
2022/10/12 01:05:52;;;;;;;;;;;3.30;99.90;;;;;;5073268;28;20324;-66
2022/10/12 01:08:18;;;;;;;;;;;3.30;99.90;;;;;;5072055;28;20011;-66
2022/10/12 01:10:43;;;;;;;;;;;3.30;99.90;;;;;;5073212;28;19931;-67
2022/10/12 01:13:09;;;;;;;;;;;3.30;99.90;;;;;;5073362;28;19954;-67
2022/10/12 01:15:38;;;;;;;;;;;3.30;99.90;;;;;;5073183;28;19912;-66
2022/10/12 01:18:07;;;;;;;;;;;3.30;99.90;;;;;;5089072;28;19913;-66
2022/10/12 01:20:40;;;;;;;;;;;3.40;99.90;;;;;;5071886;28;19958;-66
2022/10/12 01:23:23;;;;;;;;;;;3.40;99.90;;;;;;5073364;28;19908;-66
2022/10/12 01:26:09;;;;;;;;;;;3.40;99.90;;;;;;5073402;28;20358;-66
2022/10/12 01:31:26;;;;;;;;;;;3.40;99.90;;;;;;5091339;27;19912;-67
2022/10/12 01:33:58;;;;;;;;;;;3.30;99.90;;;;;;5091193;28;19913;-66
2022/10/12 01:36:34;;;;;;;;;;;3.30;99.90;;;;;;5124048;28;19908;-67
2022/10/12 01:39:04;;;;;;;;;;;3.30;99.90;;;;;;5091099;28;19915;-66
2022/10/12 01:41:35;;;;;;;;;;;3.30;99.90;;;;;;5091060;28;20282;-66
2022/10/12 01:44:00;;;;;;;;;;;3.30;99.90;;;;;;5091168;28;20007;-66
2022/10/12 01:49:04;;;;;;;;;;;3.20;99.90;;;;;;5091316;28;19912;-66
2022/10/12 01:51:49;;;;;;;;;;;3.20;99.90;;;;;;5091401;28;20430;-66
2022/10/12 01:54:35;;;;;;;;;;;3.30;99.90;;;;;;5091001;28;19965;-66
2022/10/12 01:57:05;;;;;;;;;;;3.30;99.90;;;;;;5091000;28;19909;-65
2022/10/12 01:59:36;;;;;;;;;;;3.30;99.90;;;;;;5091061;28;19909;-66
2022/10/12 02:02:21;;;;;;;;;;;3.30;99.90;;;;;;5089822;28;19908;-67
2022/10/12 02:04:56;;;;;;;;;;;3.30;99.90;;;;;;5075495;28;19958;-68
2022/10/12 02:07:26;;;;;;;;;;;3.20;99.90;;;;;;5089584;28;19912;-68
2022/10/12 02:09:52;;;;;;;;;;;3.20;99.90;;;;;;5089833;28;20355;-67
2022/10/12 02:12:20;;;;;;;;;;;3.20;99.90;;;;;;5090950;28;19916;-67
2022/10/12 02:14:49;;;;;;;;;;;3.20;99.90;;;;;;5090962;28;19915;-68
2022/10/12 02:17:17;;;;;;;;;;;3.20;99.90;;;;;;5090768;28;19919;-67
2022/10/12 02:19:46;;;;;;;;;;;3.20;99.90;;;;;;5089430;28;19953;-66
2022/10/12 02:22:12;;;;;;;;;;;3.20;99.90;;;;;;5089375;28;19908;-67
2022/10/12 02:24:39;;;;;;;;;;;3.20;99.90;;;;;;5090789;28;19908;-67
2022/10/12 02:27:06;;;;;;;;;;;3.10;99.90;;;;;;5072379;28;19923;-67
2022/10/12 02:29:36;;;;;;;;;;;3.10;99.90;;;;;;5090453;28;19944;-66
2022/10/12 02:32:05;;;;;;;;;;;3.10;99.90;;;;;;5089224;28;19958;-67
2022/10/12 02:34:33;;;;;;;;;;;3.10;99.90;;;;;;5090486;28;19909;-66
2022/10/12 02:37:04;;;;;;;;;;;3.10;99.90;;;;;;5090729;28;19908;-67
2022/10/12 02:39:34;;;;;;;;;;;3.10;99.90;;;;;;5090381;28;19916;-67
2022/10/12 02:42:03;;;;;;;;;;;3.10;99.90;;;;;;5090181;28;19908;-66
2022/10/12 02:44:31;;;;;;;;;;;3.00;99.90;;;;;;5090471;28;19959;-66
2022/10/12 02:46:58;;;;;;;;;;;3.00;99.90;;;;;;5090072;28;20302;-66
2022/10/12 02:49:24;;;;;;;;;;;3.00;99.90;;;;;;5090155;28;19908;-65
2022/10/12 02:51:50;;;;;;;;;;;3.00;99.90;;;;;;5089965;28;19909;-67
2022/10/12 02:54:16;;;;;;;;;;;2.90;99.90;;;;;;5089953;28;19916;-66
2022/10/12 02:56:43;;;;;;;;;;;2.90;99.90;;;;;;5090111;28;19908;-66
2022/10/12 02:59:09;;;;;;;;;;;2.90;99.90;;;;;;5082609;28;19909;-66
2022/10/12 03:01:34;;;;;;;;;;;2.90;99.90;;;;;;5076633;28;19912;-68
2022/10/12 03:04:00;;;;;;;;;;;2.90;99.90;;;;;;5076354;28;19913;-67
2022/10/12 03:06:26;;;;;;;;;;;2.90;99.90;;;;;;5076368;28;19913;-66
2022/10/12 03:08:52;;;;;;;;;;;2.90;99.90;;;;;;5076387;28;19919;-67
2022/10/12 03:11:17;;;;;;;;;;;2.90;99.90;;;;;;5076445;28;19909;-67
2022/10/12 03:13:43;;;;;;;;;;;2.90;99.90;;;;;;5076912;28;20325;-67
2022/10/12 03:16:09;;;;;;;;;;;2.90;99.90;;;;;;5077665;28;19908;-67
2022/10/12 03:18:34;;;;;;;;;;;2.90;99.90;;;;;;5077393;28;19908;-68
2022/10/12 03:21:00;;;;;;;;;;;2.90;99.90;;;;;;5076973;28;19915;-67
2022/10/12 03:23:26;;;;;;;;;;;2.80;99.90;;;;;;5075352;28;20058;-67
2022/10/12 03:25:54;;;;;;;;;;;2.80;99.90;;;;;;5076715;28;19920;-67
2022/10/12 03:28:20;;;;;;;;;;;2.80;99.90;;;;;;5076234;28;19996;-67
2022/10/12 03:30:45;;;;;;;;;;;2.70;99.90;;;;;;5076145;28;19985;-66
2022/10/12 03:33:11;;;;;;;;;;;2.70;99.90;;;;;;5076105;28;20001;-67
2022/10/12 03:35:37;;;;;;;;;;;2.70;99.90;;;;;;5076082;28;19908;-67
2022/10/12 03:38:02;;;;;;;;;;;2.70;99.90;;;;;;5075730;28;19913;-66
2022/10/12 03:40:27;;;;;;;;;;;2.70;99.90;;;;;;5075682;28;19909;-66
2022/10/12 03:42:53;;;;;;;;;;;2.70;99.90;;;;;;5075610;28;19913;-67
2022/10/12 03:45:18;;;;;;;;;;;2.70;99.90;;;;;;5075909;28;19944;-66
2022/10/12 03:47:44;;;;;;;;;;;2.80;99.90;;;;;;5075260;28;19974;-66
2022/10/12 03:50:09;;;;;;;;;;;2.80;99.90;;;;;;5075508;28;19912;-66
2022/10/12 03:52:35;;;;;;;;;;;2.90;99.90;;;;;;5075722;28;19920;-67
2022/10/12 03:55:00;;;;;;;;;;;2.90;99.90;;;;;;5075505;28;19908;-67
2022/10/12 03:57:26;;;;;;;;;;;2.90;99.90;;;;;;5075573;28;19908;-66
2022/10/12 03:59:51;;;;;;;;;;;2.80;99.90;;;;;;5074418;28;19913;-68
2022/10/12 04:02:17;;;;;;;;;;;2.80;99.90;;;;;;5075540;28;19999;-66
2022/10/12 04:04:42;;;;;;;;;;;2.80;99.90;;;;;;5075600;28;19958;-67
2022/10/12 04:07:08;;;;;;;;;;;2.80;99.90;;;;;;5075334;28;19920;-67
2022/10/12 04:09:33;;;;;;;;;;;2.70;99.90;;;;;;5075088;28;20370;-66
2022/10/12 04:11:59;;;;;;;;;;;2.70;99.90;;;;;;5072919;28;19916;-67
2022/10/12 04:14:24;;;;;;;;;;;2.70;99.90;;;;;;5073978;28;19913;-66
2022/10/12 04:16:52;;;;;;;;;;;2.70;99.90;;;;;;5075329;28;20000;-67
2022/10/12 04:19:18;;;;;;;;;;;2.70;99.90;;;;;;5075290;28;19908;-66
2022/10/12 04:21:43;;;;;;;;;;;2.60;99.90;;;;;;5075047;28;20386;-66
2022/10/12 04:24:08;;;;;;;;;;;2.60;99.90;;;;;;5075200;28;19916;-67
2022/10/12 04:26:34;;;;;;;;;;;2.60;99.90;;;;;;5074906;28;19908;-67
2022/10/12 04:28:59;;;;;;;;;;;2.60;99.90;;;;;;5074692;28;19913;-66
2022/10/12 04:31:25;;;;;;;;;;;2.60;99.90;;;;;;5074965;28;20283;-66
2022/10/12 04:33:55;;;;;;;;;;;2.60;99.90;;;;;;5074676;28;19908;-66
2022/10/12 04:36:22;;;;;;;;;;;2.60;99.90;;;;;;5074671;28;19914;-67
2022/10/12 04:38:47;;;;;;;;;;;2.60;99.90;;;;;;5073309;28;19909;-67
2022/10/12 04:41:12;;;;;;;;;;;2.60;99.90;;;;;;5074895;28;19909;-66
2022/10/12 04:43:38;;;;;;;;;;;2.60;99.90;;;;;;5074421;28;20432;-66
2022/10/12 04:46:03;;;;;;;;;;;2.60;99.90;;;;;;5074322;28;19913;-67
2022/10/12 04:48:29;;;;;;;;;;;2.70;99.90;;;;;;5074291;28;20015;-67
2022/10/12 04:50:54;;;;;;;;;;;2.70;99.90;;;;;;5074713;28;19912;-68
2022/10/12 04:53:20;;;;;;;;;;;2.80;99.90;;;;;;5073414;28;20346;-68
2022/10/12 04:55:46;;;;;;;;;;;2.70;99.90;;;;;;5074274;28;19962;-66
2022/10/12 04:58:11;;;;;;;;;;;2.80;99.90;;;;;;5074486;28;20417;-68
2022/10/12 05:00:36;;;;;;;;;;;2.80;99.90;;;;;;5074164;28;19916;-67
2022/10/12 05:03:03;;;;;;;;;;;2.80;99.90;;;;;;5074266;28;19909;-66
2022/10/12 05:05:28;;;;;;;;;;;2.80;99.90;;;;;;5074153;28;20007;-66
2022/10/12 05:07:54;;;;;;;;;;;2.90;99.90;;;;;;5074327;28;20065;-66
2022/10/12 05:10:19;;;;;;;;;;;2.90;99.90;;;;;;5073011;28;19916;-66
2022/10/12 05:12:45;;;;;;;;;;;2.90;99.90;;;;;;5073944;28;20371;-66
2022/10/12 05:15:10;;;;;;;;;;;2.90;99.90;;;;;;5074141;28;19908;-66
2022/10/12 05:17:36;;;;;;;;;;;2.80;99.90;;;;;;5074297;28;19944;-68
2022/10/12 05:20:02;;;;;;;;;;;2.90;99.90;;;;;;5074353;28;19909;-66
2022/10/12 05:22:27;;;;;;;;;;;2.90;99.90;;;;;;5073802;28;19908;-66
2022/10/12 05:24:53;;;;;;;;;;;2.90;99.90;;;;;;5073876;28;19958;-66
2022/10/12 05:27:18;;;;;;;;;;;2.90;99.90;;;;;;5073930;28;19913;-67
2022/10/12 05:29:44;;;;;;;;;;;2.90;99.90;;;;;;5073730;28;19915;-66
2022/10/12 05:32:09;;;;;;;;;;;3.00;99.90;;;;;;5074008;28;19920;-67
2022/10/12 05:34:34;;;;;;;;;;;3.00;99.90;;;;;;5073698;28;19917;-66
2022/10/12 05:37:00;;;;;;;;;;;3.00;99.90;;;;;;5055754;28;19908;-67
2022/10/12 05:39:26;;;;;;;;;;;3.00;99.90;;;;;;5073897;28;19999;-67
2022/10/12 05:41:53;;;;;;;;;;;3.10;99.90;;;;;;5073896;28;19913;-68
2022/10/12 05:44:19;;;;;;;;;;;3.10;99.90;;;;;;5073773;28;19999;-67
2022/10/12 05:46:45;;;;;;;;;;;3.10;99.90;;;;;;5073104;28;20024;-66
2022/10/12 05:49:10;;;;;;;;;;;3.10;99.90;;;;;;5055571;28;19948;-67
2022/10/12 05:51:37;;;;;;;;;;;3.10;99.90;;;;;;5073831;28;19908;-66
2022/10/12 05:54:03;;;;;;;;;;;3.10;99.90;;;;;;5073774;28;19909;-68
2022/10/12 05:56:28;;;;;;;;;;;3.10;99.90;;;;;;5073487;28;19916;-66
2022/10/12 05:58:54;;;;;;;;;;;3.10;99.90;;;;;;5072099;28;19912;-66
2022/10/12 06:01:19;;;;;;;;;;;3.10;99.90;;;;;;5073194;28;19912;-66
2022/10/12 06:03:45;;;;;;;;;;;3.10;99.90;;;;;;5071385;28;19916;-67
2022/10/12 06:06:10;;;;;;;;;;;3.10;99.90;;;;;;5071498;28;19954;-66
2022/10/12 06:08:36;;;;;;;;;;;3.20;99.90;;;;;;5073628;28;19944;-66
2022/10/12 06:11:02;;;;;;;;;;;3.20;99.90;;;;;;5067066;28;19935;-66
2022/10/12 06:13:27;;;;;;;;;;;3.40;99.90;;;;;;5072168;28;19915;-67
2022/10/12 06:15:52;;;;;;;;;;;3.50;99.90;;;;;;5070419;28;20359;-66
2022/10/12 06:18:18;;;;;;;;;;;3.50;99.90;;;;;;5072529;28;20294;-66
2022/10/12 06:20:45;;;;;;;;;;;3.60;99.90;;;;;;5073278;28;20003;-67
2022/10/12 06:23:11;;;;;;;;;;;3.60;99.90;;;;;;5072469;28;19915;-68
2022/10/12 06:25:37;;;;;;;;;;;3.80;99.90;;;;;;5073487;28;19912;-67
2022/10/12 06:28:02;;;;;;;;;;;4.10;99.90;;;;;;5072078;28;19919;-66
2022/10/12 06:30:27;;;;;;;;;;;4.20;99.90;;;;;;5073246;28;19913;-66
2022/10/12 06:32:53;;;;;;;;;;;4.30;99.90;;;;;;5072154;28;19961;-67
2022/10/12 06:35:18;;;;;;;;;;;4.30;99.90;;;;;;5074389;28;20001;-67
2022/10/12 06:37:49;;;;;;;;;;;4.30;99.90;;;;;;5075044;28;20386;-66
2022/10/12 06:40:14;;;;;;;;;;;4.40;99.90;;;;;;5076215;28;19912;-68
2022/10/12 06:42:40;;;;;;;;;;;4.40;99.90;;;;;;5075955;28;20007;-66
2022/10/12 06:45:05;;;;;;;;;;;4.90;99.90;;;;;;5074129;28;19913;-66
2022/10/12 06:47:31;;;;;;;;;;;5.90;99.90;;;;;;5067415;28;19929;-66
2022/10/12 06:49:56;;;;;;;;;;;6.80;99.90;;;;;;5075086;28;19978;-66
2022/10/12 06:52:22;;;;;;;;;;;7.90;99.90;;;;;;5071412;28;19912;-66
2022/10/12 06:54:47;;;;;;;;;;;8.80;99.90;;;;;;5072656;28;19909;-65
2022/10/12 06:57:13;;;;;;;;;;;8.80;99.90;;;;;;5073633;28;20328;-65
2022/10/12 06:59:38;;;;;;;;;;;9.40;99.90;;;;;;5073151;28;20377;-65
2022/10/12 07:02:04;;;;;;;;;;;10.30;99.90;;;;;;5072878;28;20379;-65
2022/10/12 07:04:30;;;;;;;;;;;11.00;99.90;;;;;;5076450;28;19915;-66
2022/10/12 07:06:55;;;;;;;;;;;12.00;99.90;;;;;;5074836;28;19919;-66
2022/10/12 07:09:21;;;;;;;;;;;13.00;99.90;;;;;;5073468;28;19920;-66
2022/10/12 07:11:46;;;;;;;;;;;13.40;99.90;;;;;;5074495;28;20008;-66
2022/10/12 07:14:12;;;;;;;;;;;13.80;99.90;;;;;;5074420;28;20375;-65
2022/10/12 07:16:37;;;;;;;;;;;13.40;99.90;;;;;;5075052;28;19913;-65
2022/10/12 07:19:03;;;;;;;;;;;13.50;99.90;;;;;;5075046;28;19955;-65
2022/10/12 07:21:28;;;;;;;;;;;13.60;99.90;;;;;;5074506;28;19912;-66
2022/10/12 07:23:54;;;;;;;;;;;14.60;99.90;;;;;;5071955;28;19912;-66
2022/10/12 07:26:19;;;;;;;;;;;13.90;99.90;;;;;;5074993;28;19913;-66
2022/10/12 07:28:46;;;;;;;;;;;13.90;99.90;;;;;;5074625;28;19932;-64
2022/10/12 07:31:11;;;;;;;;;;;14.10;99.90;;;;;;5074805;28;19959;-65
2022/10/12 07:33:37;;;;;;;;;;;15.00;99.90;;;;;;5074446;28;20370;-66
2022/10/12 07:36:03;;;;;;;;;;;15.60;99.90;;;;;;5075333;28;19920;-66
2022/10/12 07:38:29;;;;;;;;;;;15.60;99.90;;;;;;5074301;28;19912;-66
2022/10/12 07:40:57;;;;;;;;;;;16.30;99.90;;;;;;5075993;28;19958;-66
2022/10/12 07:43:23;;;;;;;;;;;17.10;99.90;;;;;;5072840;28;19958;-66
2022/10/12 07:45:48;;;;;;;;;;;16.70;99.90;;;;;;5069915;28;19916;-67
2022/10/12 07:48:14;;;;;;;;;;;16.70;99.90;;;;;;5069931;28;19967;-67
2022/10/12 07:50:39;;;;;;;;;;;17.40;99.90;;;;;;5073928;28;19913;-66
2022/10/12 07:53:05;;;;;;;;;;;16.80;99.90;;;;;;5070989;28;19917;-68
2022/10/12 07:55:30;;;;;;;;;;;16.30;99.90;;;;;;5069230;28;20302;-67
2022/10/12 07:57:58;;;;;;;;;;;16.30;99.90;;;;;;5075132;28;19913;-67
2022/10/12 08:00:23;;;;;;;;;;;15.60;99.90;;;;;;5074371;28;19912;-68
2022/10/12 08:02:49;;;;;;;;;;;14.70;99.90;;;;;;5074675;28;20367;-66
2022/10/12 08:05:14;;;;;;;;;;;14.20;99.90;;;;;;5073951;28;20165;-65
2022/10/12 08:07:40;;;;;;;;;;;13.70;99.90;;;;;;5072308;28;19916;-66
2022/10/12 08:10:06;;;;;;;;;;;13.00;99.90;;;;;;5073725;28;20002;-66
2022/10/12 08:12:31;;;;;;;;;;;13.20;99.90;;;;;;5057098;28;19908;-66
2022/10/12 08:14:57;;;;;;;;;;;13.00;99.90;;;;;;5073446;28;19913;-66
2022/10/12 08:17:22;;;;;;;;;;;13.90;99.90;;;;;;5072037;28;19923;-66
2022/10/12 08:19:47;;;;;;;;;;;14.80;99.90;;;;;;5073360;28;19935;-68
2022/10/12 08:22:13;;;;;;;;;;;15.60;99.90;;;;;;5073210;28;20025;-68
2022/10/12 08:24:38;;;;;;;;;;;15.70;99.90;;;;;;5070791;28;19920;-65
2022/10/12 08:27:04;;;;;;;;;;;15.40;99.90;;;;;;5073415;28;19986;-67
2022/10/12 08:29:29;;;;;;;;;;;16.60;99.90;;;;;;5070561;28;19908;-67
2022/10/12 08:31:55;;;;;;;;;;;16.80;99.90;;;;;;5073532;28;19913;-67
2022/10/12 08:34:21;;;;;;;;;;;15.30;99.90;;;;;;5072303;28;19912;-67
2022/10/12 08:36:46;;;;;;;;;;;14.70;99.90;;;;;;5073317;28;19919;-67
2022/10/12 08:39:12;;;;;;;;;;;15.50;99.90;;;;;;5071334;28;19912;-66
2022/10/12 08:41:57;;;;;;;;;;;16.40;99.90;;;;;;5071838;28;19912;-67
2022/10/12 08:47:11;;;;;;;;;;;16.60;99.90;;;;;;5051855;28;19917;-65
2022/10/12 08:49:39;;;;;;;;;;;16.20;99.90;;;;;;5059424;28;19913;-67
2022/10/12 08:52:10;;;;;;;;;;;16.40;99.90;;;;;;5046699;28;19919;-67
2022/10/12 08:54:41;;;;;;;;;;;16.20;99.90;;;;;;5046528;28;19964;-67
2022/10/12 08:57:12;;;;;;;;;;;17.00;99.90;;;;;;5041434;28;19917;-68
2022/10/12 08:59:37;;;;;;;;;;;17.00;99.90;;;;;;5049497;28;19913;-67
2022/10/12 09:02:23;;;;;;;;;;;17.10;99.90;;;;;;5042322;28;19988;-67
2022/10/12 09:04:52;;;;;;;;;;;17.50;99.90;;;;;;5035481;28;19917;-67
2022/10/12 09:07:30;;;;;;;;;;;17.60;99.90;;;;;;5047656;28;19913;-67
2022/10/12 09:10:01;;;;;;;;;;;17.50;99.90;;;;;;5046881;28;19913;-67
2022/10/12 09:15:07;;;;;;;;;;;17.30;99.90;;;;;;5673932;22;19933;-71
2022/10/12 09:17:37;;;;;;;;;;;17.40;99.90;;;;;;5076126;22;19994;-70
2022/10/12 09:20:05;;;;;;;;;;;17.70;99.90;;;;;;5068089;28;19912;-70
2022/10/12 09:22:32;;;;;;;;;;;17.60;99.90;;;;;;5064108;28;19932;-71
2022/10/12 09:24:58;;;;;;;;;;;17.20;99.90;;;;;;5050640;28;19920;-71
2022/10/12 09:27:27;;;;;;;;;;;16.60;99.90;;;;;;5049726;28;19916;-71
2022/10/12 09:29:56;;;;;;;;;;;16.90;99.90;;;;;;5069630;28;19913;-70
2022/10/12 09:32:34;;;;;;;;;;;16.70;99.90;;;;;;5068126;28;20358;-70
2022/10/12 09:34:59;;;;;;;;;;;17.30;99.90;;;;;;5062036;28;20276;-70
2022/10/12 09:37:28;;;;;;;;;;;18.00;99.90;;;;;;5067446;28;19913;-70
2022/10/12 09:39:54;;;;;;;;;;;18.40;99.90;;;;;;5067386;28;20377;-70
2022/10/12 09:42:19;;;;;;;;;;;18.70;99.90;;;;;;5047543;28;19921;-70
2022/10/12 09:44:47;;;;;;;;;;;18.60;99.90;;;;;;5068203;28;20421;-70
2022/10/12 09:49:59;;;;;;;;;;;18.60;99.30;;;;;;5091421;27;19917;-69
2022/10/12 09:52:28;;;;;;;;;;;18.30;99.90;;;;;;5075832;28;19918;-69
2022/10/12 09:54:56;;;;;;;;;;;18.50;99.90;;;;;;5079750;28;19931;-69
2022/10/12 09:57:22;;;;;;;;;;;19.40;99.90;;;;;;5074037;28;19916;-69
2022/10/12 09:59:48;;;;;;;;;;;20.00;99.20;;;;;;5087532;28;20419;-69
2022/10/12 10:02:16;;;;;;;;;;;20.40;96.80;;;;;;5070774;28;19912;-69
2022/10/12 10:04:42;;;;;;;;;;;20.00;97.90;;;;;;5075919;28;19919;-69
2022/10/12 10:07:28;;;;;;;;;;;19.60;97.20;;;;;;5071369;28;20305;-69
2022/10/12 10:10:11;;;;;;;;;;;19.50;98.40;;;;;;5076054;28;19916;-69
2022/10/12 10:12:53;;;;;;;;;;;19.40;98.10;;;;;;5059630;28;20365;-69
2022/10/12 10:15:24;;;;;;;;;;;19.30;97.50;;;;;;5064587;28;19921;-69
2022/10/12 10:17:52;;;;;;;;;;;19.50;97.60;;;;;;5064734;28;19922;-69
2022/10/12 10:20:23;;;;;;;;;;;19.30;98.30;;;;;;5069853;28;20388;-69
2022/10/12 10:22:48;;;;;;;;;;;19.50;98.00;;;;;;5087765;28;19979;-68
2022/10/12 10:25:21;;;;;;;;;;;20.30;97.10;;;;;;5072333;28;20007;-70
2022/10/12 10:27:49;;;;;;;;;;;19.80;96.70;;;;;;5081166;28;19912;-69
2022/10/12 10:30:18;;;;;;;;;;;19.30;96.80;;;;;;5069691;28;20343;-70
2022/10/12 10:32:44;;;;;;;;;;;18.10;99.20;;;;;;5071291;28;19913;-69
2022/10/12 10:37:50;;;;;;;;;;;18.50;99.90;;;;;;5064403;28;19927;-68
2022/10/12 10:40:32;;;;;;;;;;;18.90;99.30;;;;;;5046839;28;20275;-69
2022/10/12 10:43:02;;;;;;;;;;;19.40;98.00;;;;;;5047583;28;19913;-69
2022/10/12 10:45:31;;;;;;;;;;;18.70;97.60;;;;;;5050226;28;20004;-69
2022/10/12 10:48:00;;;;;;;;;;;17.80;98.60;;;;;;5046693;28;20390;-68
2022/10/12 10:50:29;;;;;;;;;;;17.60;99.90;;;;;;5039370;28;19913;-68
2022/10/12 10:52:57;;;;;;;;;;;17.50;99.90;;;;;;5048846;28;19920;-68
2022/10/12 10:55:26;;;;;;;;;;;18.00;99.40;;;;;;5049608;28;19959;-69
2022/10/12 10:58:12;;;;;;;;;;;19.40;97.00;;;;;;5045146;28;19914;-69
2022/10/12 11:00:46;;;;;;;;;;;19.60;96.20;;;;;;5045596;28;19913;-68
2022/10/12 11:03:15;;;;;;;;;;;19.70;96.90;;;;;;5046660;28;19959;-69
2022/10/12 11:05:44;;;;;;;;;;;19.20;96.20;;;;;;5048376;28;20382;-68
2022/10/12 11:08:14;;;;;;;;;;;19.40;97.10;;;;;;5049117;28;19917;-68
2022/10/12 11:10:44;;;;;;;;;;;18.90;97.40;;;;;;5047853;28;19956;-69
2022/10/12 11:13:19;;;;;;;;;;;19.30;97.70;;;;;;5047353;28;20365;-69
2022/10/12 11:15:47;;;;;;;;;;;19.00;97.20;;;;;;5053728;28;19956;-68
2022/10/12 11:18:16;;;;;;;;;;;18.40;98.60;;;;;;5049365;28;19913;-65
2022/10/12 11:20:45;;;;;;;;;;;18.30;98.00;;;;;;5049130;28;19995;-65
2022/10/12 11:23:18;;;;;;;;;;;18.30;97.60;;;;;;5061408;28;19921;-65
2022/10/12 11:25:52;;;;;;;;;;;18.20;97.60;;;;;;5045333;28;20271;-65
2022/10/12 11:28:17;;;;;;;;;;;18.10;98.00;;;;;;5046827;28;19913;-65
2022/10/12 11:30:45;;;;;;;;;;;18.30;98.60;;;;;;5048685;28;19913;-65
2022/10/12 11:33:14;;;;;;;;;;;18.40;97.20;;;;;;5044022;28;19913;-64
2022/10/12 11:35:40;;;;;;;;;;;17.90;95.90;;;;;;5049384;28;20047;-65
2022/10/12 11:38:08;;;;;;;;;;;18.00;96.80;;;;;;5067241;28;20457;-66
2022/10/12 11:40:39;;;;;;;;;;;18.00;95.50;;;;;;5068210;28;19913;-66
2022/10/12 11:43:06;;;;;;;;;;;17.80;96.50;;;;;;5044586;28;19921;-65
2022/10/12 11:45:35;;;;;;;;;;;17.70;96.50;;;;;;5068595;28;19992;-65
2022/10/12 11:48:04;;;;;;;;;;;17.60;96.50;;;;;;5043763;28;20263;-65
2022/10/12 11:50:35;;;;;;;;;;;17.40;96.80;;;;;;5038041;28;19913;-65
2022/10/12 11:53:02;;;;;;;;;;;17.40;96.90;;;;;;5051911;28;19912;-65
2022/10/12 11:55:48;;;;;;;;;;;17.70;98.10;;;;;;5055687;28;19913;-65
2022/10/12 11:58:20;;;;;;;;;;;17.90;97.90;;;;;;5055214;28;19948;-65
2022/10/12 12:01:02;;;;;;;;;;;17.70;98.50;;;;;;5055485;28;20293;-68
2022/10/12 12:03:38;;;;;;;;;;;17.60;98.00;;;;;;5055289;28;19913;-64
2022/10/12 12:06:23;;;;;;;;;;;17.50;98.80;;;;;;5037316;28;19913;-65
2022/10/12 12:08:52;;;;;;;;;;;17.40;98.50;;;;;;5054840;28;19916;-65
2022/10/12 12:11:20;;;;;;;;;;;17.30;99.10;;;;;;5053444;28;19913;-65
2022/10/12 12:13:45;;;;;;;;;;;17.40;99.40;;;;;;5050461;28;20024;-65
2022/10/12 12:19:09;;;;;;;;;;;17.80;99.10;;;;;;5068419;28;19917;-65
2022/10/12 12:21:54;;;;;;;;;;;17.70;98.40;;;;;;5067284;28;19923;-65
2022/10/12 12:24:21;;;;;;;;;;;17.70;98.60;;;;;;5062093;28;19956;-65
2022/10/12 12:26:47;;;;;;;;;;;17.30;99.90;;;;;;5070503;28;19909;-65
2022/10/12 12:29:20;;;;;;;;;;;17.60;99.10;;;;;;5069467;28;19982;-65
2022/10/12 12:31:55;;;;;;;;;;;17.70;99.00;;;;;;5069675;28;19912;-66
2022/10/12 12:34:21;;;;;;;;;;;17.40;99.80;;;;;;5067300;28;19925;-65
2022/10/12 12:36:48;;;;;;;;;;;17.30;99.90;;;;;;5068987;28;20378;-64
2022/10/12 12:39:23;;;;;;;;;;;17.10;99.90;;;;;;5062339;28;20408;-65
2022/10/12 12:41:51;;;;;;;;;;;17.10;99.90;;;;;;5063954;28;20354;-65
2022/10/12 12:44:39;;;;;;;;;;;17.20;99.90;;;;;;5061936;28;20015;-65
2022/10/12 12:55:27;;;;;;;;;;;17.30;99.90;;;;;;5052948;28;20378;-65
2022/10/12 12:58:04;;;;;;;;;;;17.30;99.90;;;;;;5054547;28;20040;-65
2022/10/12 13:00:44;;;;;;;;;;;17.50;99.90;;;;;;5049310;28;19948;-65
2022/10/12 13:06:04;;;;;;;;;;;17.50;99.90;;;;;;5070716;28;19917;-68
2022/10/12 13:08:42;;;;;;;;;;;17.40;99.90;;;;;;5070780;28;20281;-66
2022/10/12 13:11:27;;;;;;;;;;;17.40;99.90;;;;;;5064726;28;19958;-67
2022/10/12 13:14:12;;;;;;;;;;;17.50;99.90;;;;;;5065448;28;19917;-66
2022/10/12 13:16:58;;;;;;;;;;;17.70;99.90;;;;;;5058567;28;19920;-66
2022/10/12 13:19:24;;;;;;;;;;;17.60;99.90;;;;;;5067345;28;19915;-66
2022/10/12 13:21:50;;;;;;;;;;;17.70;99.90;;;;;;5064632;28;19913;-67
2022/10/12 13:24:21;;;;;;;;;;;17.70;99.90;;;;;;5062440;28;19947;-67
2022/10/12 13:26:48;;;;;;;;;;;17.70;99.90;;;;;;5066646;28;19966;-66
2022/10/12 13:29:34;;;;;;;;;;;17.60;99.90;;;;;;5069027;28;19909;-66
2022/10/12 13:32:01;;;;;;;;;;;17.40;99.90;;;;;;5067456;28;19920;-65
2022/10/12 13:34:37;;;;;;;;;;;17.30;99.90;;;;;;5065383;28;19999;-66
2022/10/12 13:37:08;;;;;;;;;;;17.30;99.90;;;;;;5063723;28;19920;-66
2022/10/12 13:39:37;;;;;;;;;;;17.10;99.90;;;;;;5065689;28;19913;-67
2022/10/12 13:42:02;;;;;;;;;;;17.10;99.90;;;;;;5062537;28;19921;-66
2022/10/12 13:44:29;;;;;;;;;;;17.00;99.90;;;;;;5067651;28;20271;-66
2022/10/12 13:46:57;;;;;;;;;;;16.80;99.90;;;;;;5065985;28;20267;-66
2022/10/12 13:49:26;;;;;;;;;;;16.70;99.90;;;;;;5062240;28;20353;-66
2022/10/12 13:51:54;;;;;;;;;;;16.70;99.90;;;;;;5062041;28;19955;-66
2022/10/12 13:54:21;;;;;;;;;;;16.70;99.90;;;;;;5056318;28;19920;-66
2022/10/12 13:56:48;;;;;;;;;;;16.70;99.90;;;;;;5056227;28;19928;-66
2022/10/12 13:59:17;;;;;;;;;;;16.80;99.90;;;;;;5063444;28;19913;-67
2022/10/12 14:01:47;;;;;;;;;;;16.90;99.90;;;;;;5062423;28;20297;-67
2022/10/12 14:04:12;;;;;;;;;;;16.90;99.90;;;;;;5075483;28;19920;-66
2022/10/12 14:06:37;;;;;;;;;;;16.90;99.90;;;;;;5086653;28;19912;-66
2022/10/12 14:09:07;;;;;;;;;;;16.80;99.90;;;;;;5085063;28;19923;-67
2022/10/12 14:11:33;;;;;;;;;;;16.80;99.90;;;;;;5087240;28;19916;-67
2022/10/12 14:13:58;;;;;;;;;;;16.80;99.90;;;;;;5091127;28;20011;-64
2022/10/12 14:16:24;;;;;;;;;;;17.00;99.90;;;;;;5078380;28;19921;-69
2022/10/12 14:18:50;;;;;;;;;;;17.00;99.90;;;;;;5064451;28;20292;-66
2022/10/12 14:21:22;;;;;;;;;;;17.00;99.90;;;;;;5064984;28;19970;-69
2022/10/12 14:23:50;;;;;;;;;;;17.00;99.90;;;;;;5056094;28;19973;-67
2022/10/12 14:26:35;;;;;;;;;;;17.10;99.90;;;;;;5071184;28;19912;-67
2022/10/12 14:29:21;;;;;;;;;;;17.10;99.90;;;;;;5068991;28;19913;-66
2022/10/12 14:31:48;;;;;;;;;;;16.80;99.90;;;;;;5063294;28;19970;-66
2022/10/12 14:34:22;;;;;;;;;;;16.70;99.90;;;;;;5073863;28;20393;-67
2022/10/12 14:36:57;;;;;;;;;;;16.50;99.90;;;;;;5053312;28;19913;-67
2022/10/12 14:39:25;;;;;;;;;;;16.50;99.90;;;;;;5073632;28;19917;-68
2022/10/12 14:41:50;;;;;;;;;;;16.40;99.90;;;;;;5067524;28;19913;-67
2022/10/12 14:44:17;;;;;;;;;;;16.40;99.90;;;;;;5058818;28;19917;-67
2022/10/12 14:47:04;;;;;;;;;;;16.40;99.90;;;;;;5073227;28;19926;-64
2022/10/12 14:49:35;;;;;;;;;;;16.40;99.90;;;;;;5074041;28;19912;-65
2022/10/12 14:52:00;;;;;;;;;;;16.50;99.90;;;;;;5061569;28;20425;-64
2022/10/12 14:54:26;;;;;;;;;;;16.50;99.90;;;;;;5071949;28;19995;-65
2022/10/12 14:56:51;;;;;;;;;;;16.60;99.90;;;;;;5073173;28;19919;-65
2022/10/12 14:59:16;;;;;;;;;;;16.50;99.90;;;;;;5072726;28;19981;-65